sensor_id;sensor_type;location;lat;lon;timestamp;temperature;humidity
12682;DHT22;6405;59.208;18.216;2023-02-01T00:01:37;-5.70;99.90
12682;DHT22;6405;59.208;18.216;2023-02-01T00:04:03;-5.70;99.90
12682;DHT22;6405;59.208;18.216;2023-02-01T00:06:29;-5.70;99.90
12682;DHT22;6405;59.208;18.216;2023-02-01T00:08:55;-5.70;99.90
12682;DHT22;6405;59.208;18.216;2023-02-01T00:11:22;-5.80;99.90
12682;DHT22;6405;59.208;18.216;2023-02-01T00:13:48;-5.80;99.90
12682;DHT22;6405;59.208;18.216;2023-02-01T00:16:20;-5.80;99.90
12682;DHT22;6405;59.208;18.216;2023-02-01T00:18:48;-5.80;99.90
12682;DHT22;6405;59.208;18.216;2023-02-01T00:21:18;-5.80;99.90
12682;DHT22;6405;59.208;18.216;2023-02-01T00:23:44;-5.80;99.90
12682;DHT22;6405;59.208;18.216;2023-02-01T00:26:16;-5.80;99.90
12682;DHT22;6405;59.208;18.216;2023-02-01T00:28:41;-5.70;99.90
12682;DHT22;6405;59.208;18.216;2023-02-01T00:31:08;-5.80;99.90
12682;DHT22;6405;59.208;18.216;2023-02-01T00:33:34;-5.80;99.90
12682;DHT22;6405;59.208;18.216;2023-02-01T00:36:05;-5.80;99.90
12682;DHT22;6405;59.208;18.216;2023-02-01T00:38:32;-5.80;99.90
12682;DHT22;6405;59.208;18.216;2023-02-01T00:41:07;-5.80;99.90
12682;DHT22;6405;59.208;18.216;2023-02-01T00:43:33;-5.70;99.90
12682;DHT22;6405;59.208;18.216;2023-02-01T00:45:59;-5.80;99.90
12682;DHT22;6405;59.208;18.216;2023-02-01T00:48:25;-5.80;99.90
12682;DHT22;6405;59.208;18.216;2023-02-01T00:50:51;-5.80;99.90
12682;DHT22;6405;59.208;18.216;2023-02-01T00:53:17;-5.80;99.90
12682;DHT22;6405;59.208;18.216;2023-02-01T00:55:49;-5.80;99.90
12682;DHT22;6405;59.208;18.216;2023-02-01T00:58:15;-5.80;99.90
12682;DHT22;6405;59.208;18.216;2023-02-01T01:00:40;-5.70;99.90
12682;DHT22;6405;59.208;18.216;2023-02-01T01:03:07;-5.70;99.90
12682;DHT22;6405;59.208;18.216;2023-02-01T01:05:48;-5.70;99.90
12682;DHT22;6405;59.208;18.216;2023-02-01T01:08:16;-5.60;99.90
12682;DHT22;6405;59.208;18.216;2023-02-01T01:10:42;-5.60;99.90
12682;DHT22;6405;59.208;18.216;2023-02-01T01:13:08;-5.60;99.90
12682;DHT22;6405;59.208;18.216;2023-02-01T01:15:39;-5.60;99.90
12682;DHT22;6405;59.208;18.216;2023-02-01T01:18:05;-5.50;99.90
12682;DHT22;6405;59.208;18.216;2023-02-01T01:20:31;-5.60;99.90
12682;DHT22;6405;59.208;18.216;2023-02-01T01:22:58;-5.50;99.90
12682;DHT22;6405;59.208;18.216;2023-02-01T01:25:24;-5.50;99.90
12682;DHT22;6405;59.208;18.216;2023-02-01T01:27:50;-5.50;99.90
12682;DHT22;6405;59.208;18.216;2023-02-01T01:30:16;-5.60;99.90
12682;DHT22;6405;59.208;18.216;2023-02-01T01:32:41;-5.50;99.90
12682;DHT22;6405;59.208;18.216;2023-02-01T01:35:07;-5.50;99.90
12682;DHT22;6405;59.208;18.216;2023-02-01T01:37:33;-5.50;99.90
12682;DHT22;6405;59.208;18.216;2023-02-01T01:40:00;-5.50;99.90
12682;DHT22;6405;59.208;18.216;2023-02-01T01:42:26;-5.50;99.90
12682;DHT22;6405;59.208;18.216;2023-02-01T01:44:58;-5.50;99.90
12682;DHT22;6405;59.208;18.216;2023-02-01T01:47:32;-5.40;99.90
12682;DHT22;6405;59.208;18.216;2023-02-01T01:50:00;-5.40;99.90
12682;DHT22;6405;59.208;18.216;2023-02-01T01:52:26;-5.30;99.90
12682;DHT22;6405;59.208;18.216;2023-02-01T01:54:53;-5.30;99.90
12682;DHT22;6405;59.208;18.216;2023-02-01T01:57:38;-5.20;99.90
12682;DHT22;6405;59.208;18.216;2023-02-01T02:00:13;-5.20;99.90
12682;DHT22;6405;59.208;18.216;2023-02-01T02:02:44;-5.10;99.90
12682;DHT22;6405;59.208;18.216;2023-02-01T02:05:10;-5.10;99.90
12682;DHT22;6405;59.208;18.216;2023-02-01T02:07:40;-5.10;99.90
12682;DHT22;6405;59.208;18.216;2023-02-01T02:10:08;-5.10;99.90
12682;DHT22;6405;59.208;18.216;2023-02-01T02:12:38;-5.00;99.90
12682;DHT22;6405;59.208;18.216;2023-02-01T02:15:06;-5.00;99.90
12682;DHT22;6405;59.208;18.216;2023-02-01T02:17:36;-5.00;99.90
12682;DHT22;6405;59.208;18.216;2023-02-01T02:37:15;-4.70;99.90
12682;DHT22;6405;59.208;18.216;2023-02-01T02:49:12;-4.70;99.90
12682;DHT22;6405;59.208;18.216;2023-02-01T02:54:49;-4.70;99.90
12682;DHT22;6405;59.208;18.216;2023-02-01T02:57:30;-4.70;99.90
12682;DHT22;6405;59.208;18.216;2023-02-01T03:00:18;-4.60;99.90
12682;DHT22;6405;59.208;18.216;2023-02-01T03:03:04;-4.50;99.90
12682;DHT22;6405;59.208;18.216;2023-02-01T03:05:49;-4.50;99.90
12682;DHT22;6405;59.208;18.216;2023-02-01T03:08:23;-4.50;99.90
12682;DHT22;6405;59.208;18.216;2023-02-01T03:11:14;-4.40;99.90
12682;DHT22;6405;59.208;18.216;2023-02-01T03:13:59;-4.40;99.90
12682;DHT22;6405;59.208;18.216;2023-02-01T03:17:10;-4.40;99.90
12682;DHT22;6405;59.208;18.216;2023-02-01T03:21:57;-4.40;99.90
12682;DHT22;6405;59.208;18.216;2023-02-01T03:24:36;-4.40;99.90
12682;DHT22;6405;59.208;18.216;2023-02-01T03:27:32;-4.40;99.90
12682;DHT22;6405;59.208;18.216;2023-02-01T03:30:13;-4.40;99.90
12682;DHT22;6405;59.208;18.216;2023-02-01T03:32:44;-4.40;99.90
12682;DHT22;6405;59.208;18.216;2023-02-01T03:41:24;-4.40;99.90
12682;DHT22;6405;59.208;18.216;2023-02-01T03:44:14;-4.30;99.90
12682;DHT22;6405;59.208;18.216;2023-02-01T03:47:18;-4.30;99.90
12682;DHT22;6405;59.208;18.216;2023-02-01T03:49:39;-4.30;99.90
12682;DHT22;6405;59.208;18.216;2023-02-01T03:52:08;-4.30;99.90
12682;DHT22;6405;59.208;18.216;2023-02-01T03:54:36;-4.30;99.90
12682;DHT22;6405;59.208;18.216;2023-02-01T03:57:06;-4.20;99.90
12682;DHT22;6405;59.208;18.216;2023-02-01T03:59:34;-4.20;99.90
12682;DHT22;6405;59.208;18.216;2023-02-01T04:01:59;-4.10;99.90
12682;DHT22;6405;59.208;18.216;2023-02-01T04:04:25;-4.00;99.90
12682;DHT22;6405;59.208;18.216;2023-02-01T04:06:51;-4.00;99.90
12682;DHT22;6405;59.208;18.216;2023-02-01T04:09:17;-3.90;99.90
12682;DHT22;6405;59.208;18.216;2023-02-01T04:11:43;-3.80;99.90
12682;DHT22;6405;59.208;18.216;2023-02-01T04:14:08;-3.80;99.90
12682;DHT22;6405;59.208;18.216;2023-02-01T04:16:34;-3.80;99.90
12682;DHT22;6405;59.208;18.216;2023-02-01T04:19:00;-3.70;99.90
12682;DHT22;6405;59.208;18.216;2023-02-01T04:21:26;-3.70;99.90
12682;DHT22;6405;59.208;18.216;2023-02-01T04:23:53;-3.60;99.90
12682;DHT22;6405;59.208;18.216;2023-02-01T04:26:19;-3.60;99.90
12682;DHT22;6405;59.208;18.216;2023-02-01T04:28:46;-3.50;99.90
12682;DHT22;6405;59.208;18.216;2023-02-01T04:31:16;-3.50;99.90
12682;DHT22;6405;59.208;18.216;2023-02-01T04:33:41;-3.50;99.90
12682;DHT22;6405;59.208;18.216;2023-02-01T04:36:07;-3.40;99.90
12682;DHT22;6405;59.208;18.216;2023-02-01T04:38:33;-3.40;99.90
12682;DHT22;6405;59.208;18.216;2023-02-01T04:40:59;-3.40;99.90
12682;DHT22;6405;59.208;18.216;2023-02-01T04:43:25;-3.40;99.90
12682;DHT22;6405;59.208;18.216;2023-02-01T04:45:51;-3.40;99.90
12682;DHT22;6405;59.208;18.216;2023-02-01T04:48:18;-3.30;99.90
12682;DHT22;6405;59.208;18.216;2023-02-01T04:50:45;-3.30;99.90
12682;DHT22;6405;59.208;18.216;2023-02-01T04:53:16;-3.30;99.90
12682;DHT22;6405;59.208;18.216;2023-02-01T04:55:42;-3.30;99.90
12682;DHT22;6405;59.208;18.216;2023-02-01T04:58:08;-3.30;99.90
12682;DHT22;6405;59.208;18.216;2023-02-01T05:00:34;-3.30;99.90
12682;DHT22;6405;59.208;18.216;2023-02-01T05:02:59;-3.20;99.90
12682;DHT22;6405;59.208;18.216;2023-02-01T05:05:26;-3.30;99.90
12682;DHT22;6405;59.208;18.216;2023-02-01T05:07:52;-3.30;99.90
12682;DHT22;6405;59.208;18.216;2023-02-01T05:10:18;-3.30;99.90
12682;DHT22;6405;59.208;18.216;2023-02-01T05:12:44;-3.30;99.90
12682;DHT22;6405;59.208;18.216;2023-02-01T05:15:29;-3.30;99.90
12682;DHT22;6405;59.208;18.216;2023-02-01T05:17:55;-3.30;99.90
12682;DHT22;6405;59.208;18.216;2023-02-01T05:20:21;-3.30;99.90
12682;DHT22;6405;59.208;18.216;2023-02-01T05:22:46;-3.20;99.90
12682;DHT22;6405;59.208;18.216;2023-02-01T05:25:12;-3.20;99.90
12682;DHT22;6405;59.208;18.216;2023-02-01T05:27:38;-3.20;99.90
12682;DHT22;6405;59.208;18.216;2023-02-01T05:30:05;-3.20;99.90
12682;DHT22;6405;59.208;18.216;2023-02-01T05:32:31;-3.10;99.90
12682;DHT22;6405;59.208;18.216;2023-02-01T05:34:57;-3.10;99.90
12682;DHT22;6405;59.208;18.216;2023-02-01T05:37:23;-3.10;99.90
12682;DHT22;6405;59.208;18.216;2023-02-01T05:39:49;-3.00;99.90
12682;DHT22;6405;59.208;18.216;2023-02-01T05:42:14;-3.00;99.90
12682;DHT22;6405;59.208;18.216;2023-02-01T05:44:40;-3.00;99.90
12682;DHT22;6405;59.208;18.216;2023-02-01T05:47:06;-3.00;99.90
12682;DHT22;6405;59.208;18.216;2023-02-01T05:49:32;-3.00;99.90
12682;DHT22;6405;59.208;18.216;2023-02-01T05:51:57;-2.90;99.90
12682;DHT22;6405;59.208;18.216;2023-02-01T05:54:23;-2.90;99.90
12682;DHT22;6405;59.208;18.216;2023-02-01T05:56:49;-2.90;99.90
12682;DHT22;6405;59.208;18.216;2023-02-01T05:59:14;-2.90;99.90
12682;DHT22;6405;59.208;18.216;2023-02-01T06:01:40;-2.90;99.90
12682;DHT22;6405;59.208;18.216;2023-02-01T06:04:05;-2.80;99.90
12682;DHT22;6405;59.208;18.216;2023-02-01T06:06:31;-2.90;99.90
12682;DHT22;6405;59.208;18.216;2023-02-01T06:08:57;-2.80;99.90
12682;DHT22;6405;59.208;18.216;2023-02-01T06:11:23;-2.80;99.90
12682;DHT22;6405;59.208;18.216;2023-02-01T06:13:48;-2.80;99.90
12682;DHT22;6405;59.208;18.216;2023-02-01T06:16:14;-2.80;99.90
12682;DHT22;6405;59.208;18.216;2023-02-01T06:18:41;-2.80;99.90
12682;DHT22;6405;59.208;18.216;2023-02-01T06:21:07;-2.80;99.90
12682;DHT22;6405;59.208;18.216;2023-02-01T06:23:34;-2.70;99.90
12682;DHT22;6405;59.208;18.216;2023-02-01T06:26:05;-2.70;99.90
12682;DHT22;6405;59.208;18.216;2023-02-01T06:28:32;-2.70;99.90
12682;DHT22;6405;59.208;18.216;2023-02-01T06:30:57;-2.70;99.90
12682;DHT22;6405;59.208;18.216;2023-02-01T06:33:26;-2.70;99.90
12682;DHT22;6405;59.208;18.216;2023-02-01T06:35:59;-2.70;99.90
12682;DHT22;6405;59.208;18.216;2023-02-01T06:38:25;-2.60;99.90
12682;DHT22;6405;59.208;18.216;2023-02-01T06:40:55;-2.60;99.90
12682;DHT22;6405;59.208;18.216;2023-02-01T06:43:22;-2.60;99.90
12682;DHT22;6405;59.208;18.216;2023-02-01T06:45:48;-2.60;99.90
12682;DHT22;6405;59.208;18.216;2023-02-01T06:48:13;-2.60;99.90
12682;DHT22;6405;59.208;18.216;2023-02-01T06:50:39;-2.50;99.90
12682;DHT22;6405;59.208;18.216;2023-02-01T06:53:04;-2.50;99.90
12682;DHT22;6405;59.208;18.216;2023-02-01T06:55:30;-2.50;99.90
12682;DHT22;6405;59.208;18.216;2023-02-01T06:57:56;-2.50;99.90
12682;DHT22;6405;59.208;18.216;2023-02-01T07:00:24;-2.50;99.90
12682;DHT22;6405;59.208;18.216;2023-02-01T07:02:50;-2.50;99.90
12682;DHT22;6405;59.208;18.216;2023-02-01T07:05:16;-2.50;99.90
12682;DHT22;6405;59.208;18.216;2023-02-01T07:07:42;-2.40;99.90
12682;DHT22;6405;59.208;18.216;2023-02-01T07:10:09;-2.40;99.90
12682;DHT22;6405;59.208;18.216;2023-02-01T07:12:35;-2.40;99.90
12682;DHT22;6405;59.208;18.216;2023-02-01T07:15:02;-2.30;99.90
12682;DHT22;6405;59.208;18.216;2023-02-01T07:17:28;-2.30;99.90
12682;DHT22;6405;59.208;18.216;2023-02-01T07:19:55;-2.30;99.90
12682;DHT22;6405;59.208;18.216;2023-02-01T07:22:21;-2.30;99.90
12682;DHT22;6405;59.208;18.216;2023-02-01T07:24:47;-2.30;99.90
12682;DHT22;6405;59.208;18.216;2023-02-01T07:27:12;-2.20;99.90
12682;DHT22;6405;59.208;18.216;2023-02-01T07:29:38;-2.20;99.90
12682;DHT22;6405;59.208;18.216;2023-02-01T07:32:04;-2.20;99.90
12682;DHT22;6405;59.208;18.216;2023-02-01T07:34:29;-2.20;99.90
12682;DHT22;6405;59.208;18.216;2023-02-01T07:36:56;-2.10;99.90
12682;DHT22;6405;59.208;18.216;2023-02-01T07:39:22;-2.10;99.90
12682;DHT22;6405;59.208;18.216;2023-02-01T07:41:48;-2.10;99.90
12682;DHT22;6405;59.208;18.216;2023-02-01T07:44:14;-2.10;99.90
12682;DHT22;6405;59.208;18.216;2023-02-01T07:46:39;-2.10;99.90
12682;DHT22;6405;59.208;18.216;2023-02-01T07:49:05;-2.10;99.90
12682;DHT22;6405;59.208;18.216;2023-02-01T07:51:31;-2.10;99.90
12682;DHT22;6405;59.208;18.216;2023-02-01T07:53:57;-2.00;99.90
12682;DHT22;6405;59.208;18.216;2023-02-01T07:56:22;-2.00;99.90
12682;DHT22;6405;59.208;18.216;2023-02-01T07:58:49;-2.00;99.90
12682;DHT22;6405;59.208;18.216;2023-02-01T08:01:22;-1.90;99.90
12682;DHT22;6405;59.208;18.216;2023-02-01T08:03:57;-1.90;99.90
12682;DHT22;6405;59.208;18.216;2023-02-01T08:06:27;-1.80;99.90
12682;DHT22;6405;59.208;18.216;2023-02-01T08:08:53;-1.80;99.90
12682;DHT22;6405;59.208;18.216;2023-02-01T08:11:21;-1.70;99.90
12682;DHT22;6405;59.208;18.216;2023-02-01T08:13:47;-1.70;99.90
12682;DHT22;6405;59.208;18.216;2023-02-01T08:16:15;-1.70;99.90
12682;DHT22;6405;59.208;18.216;2023-02-01T08:18:41;-1.60;99.90
12682;DHT22;6405;59.208;18.216;2023-02-01T08:21:10;-1.60;99.90
12682;DHT22;6405;59.208;18.216;2023-02-01T08:23:38;-1.50;99.90
12682;DHT22;6405;59.208;18.216;2023-02-01T08:26:14;-1.50;99.90
12682;DHT22;6405;59.208;18.216;2023-02-01T08:28:43;-1.40;99.90
12682;DHT22;6405;59.208;18.216;2023-02-01T08:31:14;-1.40;99.90
12682;DHT22;6405;59.208;18.216;2023-02-01T08:33:41;-1.30;99.90
12682;DHT22;6405;59.208;18.216;2023-02-01T08:36:08;-1.30;99.90
12682;DHT22;6405;59.208;18.216;2023-02-01T08:38:38;-1.30;99.90
12682;DHT22;6405;59.208;18.216;2023-02-01T08:41:09;-1.30;99.90
12682;DHT22;6405;59.208;18.216;2023-02-01T08:43:35;-1.30;99.90
12682;DHT22;6405;59.208;18.216;2023-02-01T08:46:02;-1.30;99.90
12682;DHT22;6405;59.208;18.216;2023-02-01T08:48:28;-1.30;99.90
12682;DHT22;6405;59.208;18.216;2023-02-01T08:50:54;-1.20;99.90
12682;DHT22;6405;59.208;18.216;2023-02-01T08:53:19;-1.20;99.90
12682;DHT22;6405;59.208;18.216;2023-02-01T08:55:46;-1.10;99.90
12682;DHT22;6405;59.208;18.216;2023-02-01T08:58:12;-1.10;99.90
12682;DHT22;6405;59.208;18.216;2023-02-01T09:00:39;-1.00;99.90
12682;DHT22;6405;59.208;18.216;2023-02-01T09:03:05;-1.00;99.90
12682;DHT22;6405;59.208;18.216;2023-02-01T09:05:31;-0.90;99.90
12682;DHT22;6405;59.208;18.216;2023-02-01T09:07:57;-0.90;99.90
12682;DHT22;6405;59.208;18.216;2023-02-01T09:10:22;-0.80;99.90
12682;DHT22;6405;59.208;18.216;2023-02-01T09:12:48;-0.70;99.90
12682;DHT22;6405;59.208;18.216;2023-02-01T09:15:14;-0.70;99.90
12682;DHT22;6405;59.208;18.216;2023-02-01T09:17:39;-0.70;99.90
12682;DHT22;6405;59.208;18.216;2023-02-01T09:20:08;-0.70;99.90
12682;DHT22;6405;59.208;18.216;2023-02-01T09:22:34;-0.60;99.90
12682;DHT22;6405;59.208;18.216;2023-02-01T09:24:59;-0.60;99.90
12682;DHT22;6405;59.208;18.216;2023-02-01T09:27:25;-0.60;99.90
12682;DHT22;6405;59.208;18.216;2023-02-01T09:29:50;-0.60;99.90
12682;DHT22;6405;59.208;18.216;2023-02-01T09:32:21;-0.50;99.90
12682;DHT22;6405;59.208;18.216;2023-02-01T09:34:50;-0.50;99.90
12682;DHT22;6405;59.208;18.216;2023-02-01T09:37:17;-0.50;99.90
12682;DHT22;6405;59.208;18.216;2023-02-01T09:39:42;-0.40;99.90
12682;DHT22;6405;59.208;18.216;2023-02-01T09:44:56;-0.40;99.90
12682;DHT22;6405;59.208;18.216;2023-02-01T09:47:25;-0.30;99.90
12682;DHT22;6405;59.208;18.216;2023-02-01T09:50:09;-0.20;99.90
12682;DHT22;6405;59.208;18.216;2023-02-01T09:52:46;-0.20;99.90
12682;DHT22;6405;59.208;18.216;2023-02-01T09:55:20;-0.20;99.90
12682;DHT22;6405;59.208;18.216;2023-02-01T09:57:58;-0.10;99.90
12682;DHT22;6405;59.208;18.216;2023-02-01T10:00:29;-0.10;99.90
12682;DHT22;6405;59.208;18.216;2023-02-01T10:02:56;-0.10;99.90
12682;DHT22;6405;59.208;18.216;2023-02-01T10:08:55;0.00;99.90
12682;DHT22;6405;59.208;18.216;2023-02-01T10:19:41;0.30;99.90
12682;DHT22;6405;59.208;18.216;2023-02-01T10:22:10;0.30;99.90
12682;DHT22;6405;59.208;18.216;2023-02-01T10:24:46;0.30;99.90
12682;DHT22;6405;59.208;18.216;2023-02-01T10:27:20;0.40;99.90
12682;DHT22;6405;59.208;18.216;2023-02-01T10:29:59;0.40;99.90
12682;DHT22;6405;59.208;18.216;2023-02-01T10:32:31;0.50;99.90
12682;DHT22;6405;59.208;18.216;2023-02-01T10:34:59;0.60;99.90
12682;DHT22;6405;59.208;18.216;2023-02-01T10:37:33;0.60;99.90
12682;DHT22;6405;59.208;18.216;2023-02-01T10:40:18;0.60;99.90
12682;DHT22;6405;59.208;18.216;2023-02-01T10:42:47;0.60;99.90
12682;DHT22;6405;59.208;18.216;2023-02-01T10:45:22;0.70;99.90
12682;DHT22;6405;59.208;18.216;2023-02-01T10:47:50;0.70;99.90
12682;DHT22;6405;59.208;18.216;2023-02-01T10:50:41;0.70;99.90
12682;DHT22;6405;59.208;18.216;2023-02-01T10:53:15;0.70;99.90
12682;DHT22;6405;59.208;18.216;2023-02-01T10:55:47;0.60;99.90
12682;DHT22;6405;59.208;18.216;2023-02-01T10:58:44;0.70;99.90
12682;DHT22;6405;59.208;18.216;2023-02-01T11:01:20;0.70;99.90
12682;DHT22;6405;59.208;18.216;2023-02-01T11:03:57;0.70;99.90
12682;DHT22;6405;59.208;18.216;2023-02-01T11:06:27;0.70;99.90
12682;DHT22;6405;59.208;18.216;2023-02-01T11:19:38;0.70;99.90
12682;DHT22;6405;59.208;18.216;2023-02-01T11:22:05;0.70;99.90
12682;DHT22;6405;59.208;18.216;2023-02-01T11:24:33;0.70;99.90
12682;DHT22;6405;59.208;18.216;2023-02-01T11:27:03;0.70;99.90
12682;DHT22;6405;59.208;18.216;2023-02-01T11:29:36;0.70;99.90
12682;DHT22;6405;59.208;18.216;2023-02-01T11:32:02;0.70;99.90
12682;DHT22;6405;59.208;18.216;2023-02-01T11:34:45;0.70;99.90
12682;DHT22;6405;59.208;18.216;2023-02-01T11:37:20;0.80;99.90
12682;DHT22;6405;59.208;18.216;2023-02-01T11:39:57;0.80;99.90
12682;DHT22;6405;59.208;18.216;2023-02-01T11:42:24;0.90;99.90
12682;DHT22;6405;59.208;18.216;2023-02-01T11:44:51;1.00;99.90
12682;DHT22;6405;59.208;18.216;2023-02-01T11:47:28;1.10;99.90
12682;DHT22;6405;59.208;18.216;2023-02-01T11:50:02;1.20;99.90
12682;DHT22;6405;59.208;18.216;2023-02-01T11:53:09;1.20;99.90
12682;DHT22;6405;59.208;18.216;2023-02-01T11:56:06;1.10;99.90
12682;DHT22;6405;59.208;18.216;2023-02-01T11:58:53;1.00;99.90
12682;DHT22;6405;59.208;18.216;2023-02-01T12:01:30;1.10;99.90
12682;DHT22;6405;59.208;18.216;2023-02-01T12:04:38;1.00;99.90
12682;DHT22;6405;59.208;18.216;2023-02-01T12:10:05;1.20;99.90
12682;DHT22;6405;59.208;18.216;2023-02-01T12:13:05;1.30;99.90
12682;DHT22;6405;59.208;18.216;2023-02-01T12:15:56;1.30;99.90
12682;DHT22;6405;59.208;18.216;2023-02-01T12:21:22;1.40;99.90
12682;DHT22;6405;59.208;18.216;2023-02-01T12:26:50;1.20;99.90
12682;DHT22;6405;59.208;18.216;2023-02-01T12:29:52;1.20;99.90
12682;DHT22;6405;59.208;18.216;2023-02-01T12:35:04;1.10;99.90
12682;DHT22;6405;59.208;18.216;2023-02-01T12:40:51;0.90;99.90
12682;DHT22;6405;59.208;18.216;2023-02-01T12:43:42;0.80;99.90
12682;DHT22;6405;59.208;18.216;2023-02-01T12:46:15;0.80;99.90
12682;DHT22;6405;59.208;18.216;2023-02-01T12:49:10;0.80;99.90
12682;DHT22;6405;59.208;18.216;2023-02-01T12:51:39;0.80;99.90
12682;DHT22;6405;59.208;18.216;2023-02-01T12:54:18;0.80;99.90
12682;DHT22;6405;59.208;18.216;2023-02-01T12:56:53;0.70;99.90
12682;DHT22;6405;59.208;18.216;2023-02-01T12:59:25;0.70;99.90
12682;DHT22;6405;59.208;18.216;2023-02-01T13:02:04;0.60;99.90
12682;DHT22;6405;59.208;18.216;2023-02-01T13:04:42;0.70;99.90
12682;DHT22;6405;59.208;18.216;2023-02-01T13:07:24;0.60;99.90
12682;DHT22;6405;59.208;18.216;2023-02-01T13:09:59;0.60;99.90
12682;DHT22;6405;59.208;18.216;2023-02-01T13:13:02;0.50;99.90
12682;DHT22;6405;59.208;18.216;2023-02-01T13:15:33;0.50;99.90
12682;DHT22;6405;59.208;18.216;2023-02-01T13:18:03;0.50;99.90
12682;DHT22;6405;59.208;18.216;2023-02-01T13:20:48;0.50;99.90
12682;DHT22;6405;59.208;18.216;2023-02-01T13:23:28;0.50;99.90
12682;DHT22;6405;59.208;18.216;2023-02-01T13:25:55;0.50;99.90
12682;DHT22;6405;59.208;18.216;2023-02-01T13:34:03;0.60;99.90
12682;DHT22;6405;59.208;18.216;2023-02-01T13:36:39;0.70;99.90
12682;DHT22;6405;59.208;18.216;2023-02-01T13:42:00;0.60;99.90
12682;DHT22;6405;59.208;18.216;2023-02-01T13:46:59;0.60;99.90
12682;DHT22;6405;59.208;18.216;2023-02-01T13:49:30;0.60;99.90
12682;DHT22;6405;59.208;18.216;2023-02-01T13:51:57;0.60;99.90
12682;DHT22;6405;59.208;18.216;2023-02-01T13:56:54;0.60;99.90
12682;DHT22;6405;59.208;18.216;2023-02-01T14:10:55;0.10;99.90
12682;DHT22;6405;59.208;18.216;2023-02-01T14:13:51;0.00;99.90
12682;DHT22;6405;59.208;18.216;2023-02-01T14:16:17;0.00;99.90
12682;DHT22;6405;59.208;18.216;2023-02-01T14:21:20;0.00;99.90
12682;DHT22;6405;59.208;18.216;2023-02-01T14:32:06;-0.10;99.90
12682;DHT22;6405;59.208;18.216;2023-02-01T14:42:43;-0.20;99.90
12682;DHT22;6405;59.208;18.216;2023-02-01T14:47:54;-0.20;99.90
12682;DHT22;6405;59.208;18.216;2023-02-01T14:55:46;-0.20;99.90
12682;DHT22;6405;59.208;18.216;2023-02-01T14:59:12;-0.20;99.90
12682;DHT22;6405;59.208;18.216;2023-02-01T15:01:21;-0.30;99.90
12682;DHT22;6405;59.208;18.216;2023-02-01T15:04:10;-0.30;99.90
12682;DHT22;6405;59.208;18.216;2023-02-01T15:06:38;-0.30;99.90
12682;DHT22;6405;59.208;18.216;2023-02-01T15:12:14;-0.30;99.90
12682;DHT22;6405;59.208;18.216;2023-02-01T15:14:43;-0.30;99.90
12682;DHT22;6405;59.208;18.216;2023-02-01T15:17:27;-0.40;99.90
12682;DHT22;6405;59.208;18.216;2023-02-01T15:20:13;-0.40;99.90
12682;DHT22;6405;59.208;18.216;2023-02-01T15:22:39;-0.40;99.90
12682;DHT22;6405;59.208;18.216;2023-02-01T15:25:05;-0.40;99.90
12682;DHT22;6405;59.208;18.216;2023-02-01T15:27:32;-0.40;99.90
12682;DHT22;6405;59.208;18.216;2023-02-01T15:33:27;-0.40;99.90
12682;DHT22;6405;59.208;18.216;2023-02-01T15:38:38;-0.50;99.90
12682;DHT22;6405;59.208;18.216;2023-02-01T15:41:08;-0.50;99.90
12682;DHT22;6405;59.208;18.216;2023-02-01T15:43:43;-0.50;99.90
12682;DHT22;6405;59.208;18.216;2023-02-01T15:46:15;-0.50;99.90
12682;DHT22;6405;59.208;18.216;2023-02-01T15:48:47;-0.50;99.90
12682;DHT22;6405;59.208;18.216;2023-02-01T15:51:25;-0.50;99.90
12682;DHT22;6405;59.208;18.216;2023-02-01T15:55:04;-0.50;99.90
12682;DHT22;6405;59.208;18.216;2023-02-01T15:57:09;-0.50;99.90
12682;DHT22;6405;59.208;18.216;2023-02-01T15:59:42;-0.50;99.90
12682;DHT22;6405;59.208;18.216;2023-02-01T16:02:28;-0.50;99.90
12682;DHT22;6405;59.208;18.216;2023-02-01T16:04:54;-0.50;99.90
12682;DHT22;6405;59.208;18.216;2023-02-01T16:07:27;-0.50;99.90
12682;DHT22;6405;59.208;18.216;2023-02-01T16:09:55;-0.50;99.90
12682;DHT22;6405;59.208;18.216;2023-02-01T16:12:33;-0.50;99.90
12682;DHT22;6405;59.208;18.216;2023-02-01T16:15:04;-0.50;99.90
12682;DHT22;6405;59.208;18.216;2023-02-01T16:17:30;-0.50;99.90
12682;DHT22;6405;59.208;18.216;2023-02-01T16:19:56;-0.50;99.90
12682;DHT22;6405;59.208;18.216;2023-02-01T16:22:22;-0.60;99.90
12682;DHT22;6405;59.208;18.216;2023-02-01T16:24:48;-0.60;99.90
12682;DHT22;6405;59.208;18.216;2023-02-01T16:27:14;-0.60;99.90
12682;DHT22;6405;59.208;18.216;2023-02-01T16:29:40;-0.60;99.90
12682;DHT22;6405;59.208;18.216;2023-02-01T16:32:05;-0.60;99.90
12682;DHT22;6405;59.208;18.216;2023-02-01T16:34:31;-0.60;99.90
12682;DHT22;6405;59.208;18.216;2023-02-01T16:36:58;-0.60;99.90
12682;DHT22;6405;59.208;18.216;2023-02-01T16:39:24;-0.60;99.90
12682;DHT22;6405;59.208;18.216;2023-02-01T16:41:50;-0.60;99.90
12682;DHT22;6405;59.208;18.216;2023-02-01T16:44:16;-0.60;99.90
12682;DHT22;6405;59.208;18.216;2023-02-01T16:46:43;-0.60;99.90
12682;DHT22;6405;59.208;18.216;2023-02-01T16:49:19;-0.60;99.90
12682;DHT22;6405;59.208;18.216;2023-02-01T16:51:45;-0.60;99.90
12682;DHT22;6405;59.208;18.216;2023-02-01T16:54:11;-0.70;99.90
12682;DHT22;6405;59.208;18.216;2023-02-01T16:56:37;-0.60;99.90
12682;DHT22;6405;59.208;18.216;2023-02-01T16:59:05;-0.70;99.90
12682;DHT22;6405;59.208;18.216;2023-02-01T17:01:31;-0.70;99.90
12682;DHT22;6405;59.208;18.216;2023-02-01T17:03:57;-0.70;99.90
12682;DHT22;6405;59.208;18.216;2023-02-01T17:06:25;-0.80;99.90
12682;DHT22;6405;59.208;18.216;2023-02-01T17:08:55;-0.80;99.90
12682;DHT22;6405;59.208;18.216;2023-02-01T17:11:23;-0.80;99.90
12682;DHT22;6405;59.208;18.216;2023-02-01T17:13:49;-0.80;99.90
12682;DHT22;6405;59.208;18.216;2023-02-01T17:18:46;-0.80;99.90
12682;DHT22;6405;59.208;18.216;2023-02-01T17:21:13;-0.80;99.90
12682;DHT22;6405;59.208;18.216;2023-02-01T17:23:38;-0.80;99.90
12682;DHT22;6405;59.208;18.216;2023-02-01T17:26:04;-0.80;99.90
12682;DHT22;6405;59.208;18.216;2023-02-01T17:28:30;-0.80;99.90
12682;DHT22;6405;59.208;18.216;2023-02-01T17:30:56;-0.80;99.90
12682;DHT22;6405;59.208;18.216;2023-02-01T17:33:26;-0.80;99.90
12682;DHT22;6405;59.208;18.216;2023-02-01T17:35:54;-0.80;99.90
12682;DHT22;6405;59.208;18.216;2023-02-01T17:38:20;-0.80;99.90
12682;DHT22;6405;59.208;18.216;2023-02-01T17:40:46;-0.80;99.90
12682;DHT22;6405;59.208;18.216;2023-02-01T17:43:16;-0.80;99.90
12682;DHT22;6405;59.208;18.216;2023-02-01T17:48:16;-0.80;99.90
12682;DHT22;6405;59.208;18.216;2023-02-01T17:50:42;-0.80;99.90
12682;DHT22;6405;59.208;18.216;2023-02-01T17:53:09;-0.70;99.90
12682;DHT22;6405;59.208;18.216;2023-02-01T17:55:39;-0.70;99.90
12682;DHT22;6405;59.208;18.216;2023-02-01T17:58:04;-0.80;99.90
12682;DHT22;6405;59.208;18.216;2023-02-01T18:00:31;-0.80;99.90
12682;DHT22;6405;59.208;18.216;2023-02-01T18:02:57;-0.80;99.90
12682;DHT22;6405;59.208;18.216;2023-02-01T18:05:27;-0.80;99.90
12682;DHT22;6405;59.208;18.216;2023-02-01T18:07:55;-0.80;99.90
12682;DHT22;6405;59.208;18.216;2023-02-01T18:10:20;-0.80;99.90
12682;DHT22;6405;59.208;18.216;2023-02-01T18:12:46;-0.80;99.90
12682;DHT22;6405;59.208;18.216;2023-02-01T18:15:20;-0.90;99.90
12682;DHT22;6405;59.208;18.216;2023-02-01T18:17:47;-0.90;99.90
12682;DHT22;6405;59.208;18.216;2023-02-01T18:20:18;-0.90;99.90